createdAt,value
2018-02-20T00:02:01.043Z,26.76
2018-02-20T00:04:29.326Z,24.70
2018-02-20T00:06:57.574Z,24.50
2018-02-20T00:09:25.854Z,26.46
2018-02-20T00:11:54.145Z,25.80
2018-02-20T00:14:22.403Z,26.40
2018-02-20T00:16:51.590Z,25.24
2018-02-20T00:19:19.847Z,26.18
2018-02-20T00:21:48.136Z,25.56
2018-02-20T00:24:16.550Z,26.56
2018-02-20T00:26:44.842Z,25.12
2018-02-20T00:29:13.102Z,24.66
2018-02-20T00:31:41.371Z,25.52
2018-02-20T00:34:09.675Z,25.86
2018-02-20T00:36:37.945Z,26.18
2018-02-20T00:39:07.035Z,26.46
2018-02-20T00:41:35.345Z,26.82
2018-02-20T00:44:03.620Z,27.60
2018-02-20T00:46:31.885Z,26.82
2018-02-20T00:49:00.179Z,25.72
2018-02-20T00:51:28.435Z,22.70
2018-02-20T00:53:56.699Z,28.96
2018-02-20T00:56:24.991Z,27.72
2018-02-20T00:58:53.242Z,28.48
2018-02-20T01:01:21.540Z,29.56
2018-02-20T01:03:49.799Z,28.72
2018-02-20T01:06:18.104Z,29.26
2018-02-20T01:08:46.371Z,27.22
2018-02-20T01:11:14.630Z,26.40
2018-02-20T01:13:42.927Z,27.98
2018-02-20T01:16:11.191Z,27.16
2018-02-20T01:18:39.485Z,26.30
2018-02-20T01:21:07.755Z,27.36
2018-02-20T01:23:37.171Z,27.14
2018-02-20T01:26:06.340Z,26.10
2018-02-20T01:28:35.714Z,25.64
2018-02-20T01:31:03.974Z,26.38
2018-02-20T01:33:32.234Z,24.98
2018-02-20T01:36:00.541Z,26.70
2018-02-20T01:38:28.802Z,26.82
2018-02-20T01:40:57.091Z,26.22
2018-02-20T01:43:25.348Z,25.44
2018-02-20T01:45:52.868Z,28.12
2018-02-20T01:48:21.131Z,27.70
2018-02-20T01:51:01.210Z,26.12
2018-02-20T01:53:29.463Z,26.92
2018-02-20T01:55:57.730Z,27.24
2018-02-20T01:58:26.014Z,25.84
2018-02-20T02:00:54.287Z,26.22
2018-02-20T02:03:22.583Z,30.20
2018-02-20T02:05:50.897Z,26.52
2018-02-20T02:08:19.163Z,28.30
2018-02-20T02:10:47.416Z,27.06
2018-02-20T02:13:15.691Z,25.30
2018-02-20T02:15:43.986Z,27.50
2018-02-20T02:18:12.230Z,28.06
2018-02-20T02:20:40.500Z,28.12
2018-02-20T02:23:08.796Z,26.80
2018-02-20T02:25:37.057Z,27.94
2018-02-20T02:28:05.322Z,29.90
2018-02-20T02:30:33.610Z,29.48
2018-02-20T02:33:01.884Z,29.14
2018-02-20T02:35:30.152Z,28.84
2018-02-20T02:37:58.449Z,30.42
2018-02-20T02:40:26.717Z,28.26
2018-02-20T02:42:55.019Z,27.98
2018-02-20T02:45:23.283Z,28.90
2018-02-20T02:47:50.804Z,29.68
2018-02-20T02:50:19.064Z,29.92
2018-02-20T02:52:47.355Z,28.72
2018-02-20T02:55:14.851Z,27.68
2018-02-20T02:57:43.139Z,29.52
2018-02-20T03:00:11.399Z,28.90
2018-02-20T03:02:39.679Z,31.72
2018-02-20T03:05:07.948Z,26.44
2018-02-20T03:07:35.846Z,28.52
2018-02-20T03:10:05.315Z,29.35
2018-02-20T03:12:33.611Z,28.60
2018-02-20T03:15:01.928Z,26.07
2018-02-20T03:17:30.182Z,28.72
2018-02-20T03:19:58.434Z,29.64
2018-02-20T03:22:26.731Z,26.88
2018-02-20T03:24:55.041Z,28.62
2018-02-20T03:27:23.306Z,27.70
2018-02-20T03:29:51.576Z,28.20
2018-02-20T03:32:19.857Z,29.70
2018-02-20T03:34:48.142Z,27.86
2018-02-20T03:37:16.403Z,30.08
2018-02-20T03:39:44.690Z,27.92
2018-02-20T03:42:12.974Z,30.20
2018-02-20T03:44:41.234Z,27.07
2018-02-20T03:47:09.526Z,28.88
2018-02-20T03:49:37.787Z,27.37
2018-02-20T03:52:06.782Z,28.82
2018-02-20T03:54:36.099Z,29.73
2018-02-20T03:57:04.401Z,27.46
2018-02-20T03:59:32.704Z,31.02
2018-02-20T04:02:00.973Z,30.13
2018-02-20T04:04:29.262Z,28.72
2018-02-20T04:06:57.554Z,29.40
2018-02-20T04:09:25.817Z,31.40
2018-02-20T04:11:54.092Z,32.48
2018-02-20T04:14:22.392Z,30.12
2018-02-20T04:16:50.651Z,31.43
2018-02-20T04:19:18.946Z,31.93
2018-02-20T04:21:47.223Z,30.25
2018-02-20T04:24:15.480Z,27.93
2018-02-20T04:26:43.766Z,30.73
2018-02-20T04:29:12.054Z,32.55
2018-02-20T04:31:40.348Z,28.78
2018-02-20T04:34:07.842Z,33.18
2018-02-20T04:36:37.408Z,33.05
2018-02-20T04:39:06.422Z,32.25
2018-02-20T04:41:35.742Z,29.30
2018-02-20T04:44:04.006Z,28.05
2018-02-20T04:46:36.392Z,28.87
2018-02-20T04:49:05.318Z,29.72
2018-02-20T04:51:33.611Z,27.87
2018-02-20T04:54:01.893Z,27.15
2018-02-20T04:56:30.158Z,29.30
2018-02-20T04:58:58.450Z,27.53
2018-02-20T05:01:26.742Z,26.27
2018-02-20T05:03:55.046Z,29.30
2018-02-20T05:06:23.303Z,32.25
2018-02-20T05:08:51.561Z,28.65
2018-02-20T05:11:19.854Z,28.22
2018-02-20T05:13:48.117Z,27.53
2018-02-20T05:16:16.398Z,29.20
2018-02-20T05:18:44.660Z,29.28
2018-02-20T05:21:12.944Z,28.18
2018-02-20T05:23:41.227Z,29.40
2018-02-20T05:26:08.753Z,29.08
2018-02-20T05:28:37.050Z,31.47
2018-02-20T05:31:05.326Z,29.18
2018-02-20T05:33:33.617Z,29.52
2018-02-20T05:36:01.883Z,28.17
2018-02-20T05:38:30.145Z,28.80
2018-02-20T05:40:57.665Z,31.02
2018-02-20T05:43:25.935Z,31.45
2018-02-20T05:45:53.466Z,30.53
2018-02-20T05:48:21.725Z,28.88
2018-02-20T05:50:49.983Z,29.27
2018-02-20T05:53:18.273Z,29.28
2018-02-20T05:55:46.526Z,32.92
2018-02-20T05:58:14.845Z,33.17
2018-02-20T06:00:43.115Z,28.60
2018-02-20T06:03:11.379Z,31.23
2018-02-20T06:05:39.683Z,32.93
2018-02-20T06:08:07.946Z,32.85
2018-02-20T06:10:36.657Z,32.74
2018-02-20T06:13:05.974Z,30.42
2018-02-20T06:15:34.955Z,30.32
2018-02-20T06:18:03.246Z,33.62
2018-02-20T06:20:31.543Z,31.82
2018-02-20T06:22:59.811Z,33.07
2018-02-20T06:25:28.118Z,30.70
2018-02-20T06:27:56.378Z,34.12
2018-02-20T06:30:24.626Z,32.53
2018-02-20T06:32:52.924Z,33.65
2018-02-20T06:35:21.184Z,30.60
2018-02-20T06:37:49.481Z,30.17
2018-02-20T06:40:17.763Z,32.58
2018-02-20T06:42:46.064Z,32.57
2018-02-20T06:45:14.323Z,34.42
2018-02-20T06:47:42.619Z,31.37
2018-02-20T06:50:10.880Z,33.30
2018-02-20T06:52:39.170Z,30.30
2018-02-20T06:55:07.471Z,32.72
2018-02-20T06:57:36.881Z,36.07
2018-02-20T07:00:05.995Z,32.92
2018-02-20T07:02:35.083Z,37.25
2018-02-20T07:05:03.377Z,32.68
2018-02-20T07:07:31.635Z,31.15
2018-02-20T07:09:59.931Z,33.65
2018-02-20T07:12:28.223Z,33.65
2018-02-20T07:14:56.518Z,34.52
2018-02-20T07:17:24.770Z,37.47
2018-02-20T07:19:53.067Z,33.58
2018-02-20T07:22:21.368Z,34.42
2018-02-20T07:24:49.679Z,32.95
2018-02-20T07:27:17.934Z,32.20
2018-02-20T07:29:46.221Z,33.72
2018-02-20T07:32:14.521Z,34.02
2018-02-20T07:34:42.802Z,33.92
2018-02-20T07:37:11.088Z,35.48
2018-02-20T07:39:39.342Z,34.23
2018-02-20T07:42:07.633Z,30.68
2018-02-20T07:44:36.789Z,35.87
2018-02-20T07:47:05.866Z,31.38
2018-02-20T07:49:34.959Z,32.67
2018-02-20T07:52:03.222Z,36.18
2018-02-20T07:54:31.476Z,34.60
2018-02-20T07:56:59.758Z,36.33
2018-02-20T07:59:28.009Z,33.27
2018-02-20T08:01:56.301Z,33.13
2018-02-20T08:04:24.550Z,33.42
2018-02-20T08:06:52.845Z,33.38
2018-02-20T08:09:21.115Z,34.77
2018-02-20T08:11:49.367Z,33.18
2018-02-20T08:14:17.657Z,35.63
2018-02-20T08:16:52.755Z,36.20
2018-02-20T08:19:21.047Z,34.22
2018-02-20T08:21:49.351Z,30.95
2018-02-20T08:24:17.606Z,32.97
2018-02-20T08:26:48.147Z,33.55
2018-02-20T08:29:16.440Z,34.22
2018-02-20T08:31:44.060Z,32.97
2018-02-20T08:34:12.318Z,35.92
2018-02-20T08:36:40.578Z,33.88
2018-02-20T08:39:08.880Z,33.10
2018-02-20T08:41:37.147Z,36.70
2018-02-20T08:44:05.438Z,33.28
2018-02-20T08:46:33.702Z,34.70
2018-02-20T08:49:01.997Z,36.25
2018-02-20T08:51:30.254Z,35.10
2018-02-20T08:53:58.514Z,35.22
2018-02-20T08:56:26.812Z,35.83
2018-02-20T08:58:55.101Z,35.05
2018-02-20T09:01:23.387Z,36.02
2018-02-20T09:03:51.677Z,35.07
2018-02-20T09:06:19.974Z,35.26
2018-02-20T09:08:48.295Z,35.47
2018-02-20T09:11:16.562Z,32.96
2018-02-20T09:13:44.810Z,32.68
2018-02-20T09:16:13.109Z,38.72
2018-02-20T09:18:41.370Z,34.90
2018-02-20T09:21:09.638Z,36.26
2018-02-20T09:23:37.926Z,36.18
2018-02-20T09:26:12.156Z,35.66
2018-02-20T09:28:40.441Z,37.37
2018-02-20T09:31:08.731Z,38.38
2018-02-20T09:33:37.483Z,38.52
2018-02-20T09:36:06.673Z,38.60
2018-02-20T09:38:36.103Z,37.44
2018-02-20T09:41:04.394Z,38.28
2018-02-20T09:43:32.651Z,42.94
2018-02-20T09:46:00.923Z,38.88
2018-02-20T09:48:29.220Z,39.78
2018-02-20T09:50:56.739Z,43.82
2018-02-20T09:53:24.981Z,39.32
2018-02-20T09:55:53.363Z,39.98
2018-02-20T09:58:21.647Z,42.63
2018-02-20T10:00:49.907Z,44.32
2018-02-20T10:03:18.195Z,45.20
2018-02-20T10:05:46.441Z,40.84
2018-02-20T10:08:14.707Z,43.20
2018-02-20T10:10:42.978Z,45.32
2018-02-20T10:13:11.271Z,45.30
2018-02-20T10:15:39.526Z,44.84
2018-02-20T10:18:07.820Z,41.10
2018-02-20T10:20:37.214Z,43.70
2018-02-20T10:23:06.002Z,44.84
2018-02-20T10:25:34.978Z,42.86
2018-02-20T10:28:03.253Z,44.48
2018-02-20T10:30:31.510Z,44.48
2018-02-20T10:32:59.806Z,42.82
2018-02-20T10:35:28.055Z,42.22
2018-02-20T10:37:56.783Z,63.98
2018-02-20T10:40:25.060Z,87.80
2018-02-20T10:42:53.314Z,45.38
2018-02-20T10:45:21.597Z,41.42
2018-02-20T10:47:49.859Z,41.76
2018-02-20T10:50:18.128Z,39.46
2018-02-20T10:52:46.411Z,41.80
2018-02-20T10:55:14.680Z,41.76
2018-02-20T10:57:42.976Z,40.74
2018-02-20T11:00:11.240Z,39.32
2018-02-20T11:02:39.538Z,40.72
2018-02-20T11:05:07.803Z,38.80
2018-02-20T11:07:36.795Z,39.42
2018-02-20T11:10:05.708Z,36.24
2018-02-20T11:12:33.987Z,35.50
2018-02-20T11:15:02.257Z,35.82
2018-02-20T11:17:30.510Z,35.60
2018-02-20T11:19:58.782Z,37.04
2018-02-20T11:22:27.039Z,32.36
2018-02-20T11:24:54.534Z,31.74
2018-02-20T11:27:22.797Z,32.00
2018-02-20T11:29:51.060Z,31.52
2018-02-20T11:32:19.336Z,32.08
2018-02-20T11:34:47.607Z,29.92
2018-02-20T11:37:15.854Z,28.58
2018-02-20T11:39:44.127Z,28.62
2018-02-20T11:42:12.387Z,27.54
2018-02-20T11:44:40.685Z,30.18
2018-02-20T11:47:08.937Z,27.08
2018-02-20T11:49:37.187Z,28.86
2018-02-20T11:52:05.839Z,27.74
2018-02-20T11:54:35.412Z,28.62
2018-02-20T11:57:03.686Z,29.72
2018-02-20T11:59:31.952Z,26.84
2018-02-20T12:02:00.222Z,29.74
2018-02-20T12:04:28.494Z,31.50
2018-02-20T12:06:56.745Z,27.10
2018-02-20T12:09:25.042Z,27.16
2018-02-20T12:11:53.330Z,26.08
2018-02-20T12:14:21.591Z,26.32
2018-02-20T12:16:49.843Z,25.68
2018-02-20T12:19:18.140Z,24.62
2018-02-20T12:21:46.395Z,25.90
2018-02-20T12:24:13.918Z,26.38
2018-02-20T12:26:42.178Z,24.38
2018-02-20T12:29:10.474Z,24.94
2018-02-20T12:31:38.747Z,22.96
2018-02-20T12:34:07.042Z,24.42
2018-02-20T12:36:35.293Z,24.70
2018-02-20T12:39:03.554Z,23.92
2018-02-20T12:41:31.842Z,23.44
2018-02-20T12:44:00.100Z,27.32
2018-02-20T12:46:28.377Z,23.92
2018-02-20T12:48:56.635Z,25.82
2018-02-20T12:51:24.911Z,24.94
2018-02-20T12:53:53.183Z,23.76
2018-02-20T12:56:21.447Z,25.62
2018-02-20T12:58:49.735Z,26.22
2018-02-20T13:01:17.986Z,23.50
2018-02-20T13:03:46.262Z,25.02
2018-02-20T13:06:14.516Z,24.08
2018-02-20T13:08:42.819Z,24.28
2018-02-20T13:11:11.078Z,23.90
2018-02-20T13:13:39.334Z,25.78
2018-02-20T13:16:07.619Z,25.30
2018-02-20T13:18:37.230Z,22.40
2018-02-20T13:21:05.985Z,26.54
2018-02-20T13:23:35.060Z,21.70
2018-02-20T13:26:03.350Z,24.24
2018-02-20T13:28:31.601Z,24.52
2018-02-20T13:30:59.868Z,23.38
2018-02-20T13:33:28.142Z,22.24
2018-02-20T13:35:56.405Z,24.32
2018-02-20T13:38:24.687Z,22.14
2018-02-20T13:40:52.975Z,23.48
2018-02-20T13:43:21.222Z,25.76
2018-02-20T13:45:49.470Z,23.52
2018-02-20T13:48:17.734Z,24.70
2018-02-20T13:50:45.991Z,25.44
2018-02-20T13:53:14.257Z,23.72
2018-02-20T13:55:42.519Z,22.58
2018-02-20T13:58:13.942Z,20.88
2018-02-20T14:00:42.206Z,18.88
2018-02-20T14:03:10.470Z,20.50
2018-02-20T14:05:37.969Z,18.54
2018-02-20T14:08:07.182Z,19.58
2018-02-20T14:10:36.696Z,20.42
2018-02-20T14:13:05.547Z,23.24
2018-02-20T14:15:33.810Z,24.36
2018-02-20T14:18:02.090Z,21.66
2018-02-20T14:20:30.346Z,22.30
2018-02-20T14:22:58.640Z,22.68
2018-02-20T14:25:26.917Z,23.82
2018-02-20T14:27:55.200Z,22.52
2018-02-20T14:30:23.474Z,22.92
2018-02-20T14:32:51.734Z,19.64
2018-02-20T14:35:20.010Z,22.90
2018-02-20T14:37:48.257Z,24.42
2018-02-20T14:40:16.561Z,22.00
2018-02-20T14:42:44.814Z,22.24
2018-02-20T14:45:13.074Z,23.40
2018-02-20T14:47:41.354Z,22.46
2018-02-20T14:50:09.621Z,21.56
2018-02-20T14:52:37.122Z,23.46
2018-02-20T14:55:05.365Z,23.56
2018-02-20T14:57:33.642Z,26.48
2018-02-20T15:00:01.899Z,25.24
2018-02-20T15:02:30.165Z,23.64
2018-02-20T15:04:58.427Z,24.34
2018-02-20T15:07:26.738Z,23.36
2018-02-20T15:09:55.000Z,25.76
2018-02-20T15:12:23.263Z,25.92
2018-02-20T15:14:51.549Z,25.22
2018-02-20T15:17:19.823Z,26.48
2018-02-20T15:19:48.087Z,24.68
2018-02-20T15:22:16.362Z,24.30
2018-02-20T15:24:44.650Z,25.82
2018-02-20T15:27:12.930Z,26.22
2018-02-20T15:29:41.183Z,24.00
2018-02-20T15:32:09.462Z,24.70
2018-02-20T15:34:37.710Z,24.26
2018-02-20T15:37:06.699Z,27.02
2018-02-20T15:39:35.854Z,23.82
2018-02-20T15:42:05.262Z,28.66
2018-02-20T15:44:33.527Z,26.06
2018-02-20T15:47:01.818Z,25.34
2018-02-20T15:49:30.071Z,26.86
2018-02-20T15:51:58.328Z,26.02
2018-02-20T15:54:29.947Z,26.82
2018-02-20T15:56:58.225Z,25.56
2018-02-20T15:59:26.479Z,25.76
2018-02-20T16:01:54.767Z,25.68
2018-02-20T16:04:23.024Z,25.82
2018-02-20T16:06:51.295Z,25.36
2018-02-20T16:09:19.586Z,27.24
2018-02-20T16:11:47.853Z,26.78
2018-02-20T16:14:17.538Z,25.14
2018-02-20T16:16:45.830Z,28.02
2018-02-20T16:19:14.084Z,25.70
2018-02-20T16:21:42.383Z,28.08
2018-02-20T16:24:10.647Z,25.02
2018-02-20T16:26:38.938Z,25.40
2018-02-20T16:29:07.234Z,24.52
2018-02-20T16:31:36.699Z,25.46
2018-02-20T16:34:05.971Z,25.36
2018-02-20T16:36:35.045Z,24.26
2018-02-20T16:39:03.327Z,23.70
2018-02-20T16:41:31.615Z,27.00
2018-02-20T16:43:59.878Z,27.76
2018-02-20T16:46:28.155Z,26.28
2018-02-20T16:48:56.431Z,24.98
2018-02-20T16:51:24.699Z,25.30
2018-02-20T16:53:52.950Z,27.04
2018-02-20T16:56:21.233Z,23.86
2018-02-20T16:58:49.483Z,25.62
2018-02-20T17:01:17.775Z,26.12
2018-02-20T17:03:46.031Z,27.48
2018-02-20T17:06:14.341Z,25.10
2018-02-20T17:08:42.686Z,24.64
2018-02-20T17:11:10.974Z,26.28
2018-02-20T17:13:39.239Z,25.74
2018-02-20T17:16:07.534Z,30.16
2018-02-20T17:18:36.950Z,35.14
2018-02-20T17:21:04.447Z,30.46
2018-02-20T17:23:32.754Z,29.74
2018-02-20T17:26:01.001Z,29.86
2018-02-20T17:28:29.262Z,29.00
2018-02-20T17:30:57.659Z,27.54
2018-02-20T17:33:25.922Z,28.44
2018-02-20T17:35:54.178Z,26.56
2018-02-20T17:38:22.484Z,30.46
2018-02-20T17:40:50.738Z,26.68
2018-02-20T17:43:18.986Z,27.72
2018-02-20T17:45:47.280Z,26.08
2018-02-20T17:48:15.546Z,27.32
2018-02-20T17:50:43.074Z,24.60
2018-02-20T17:53:11.368Z,27.40
2018-02-20T17:55:39.640Z,28.94
2018-02-20T17:58:07.930Z,25.82
2018-02-20T18:00:37.005Z,28.58
2018-02-20T18:03:05.682Z,28.12
2018-02-20T18:05:33.938Z,33.02
2018-02-20T18:08:02.226Z,28.26
2018-02-20T18:10:30.483Z,29.74
2018-02-20T18:12:58.751Z,27.96
2018-02-20T18:15:27.037Z,27.28
2018-02-20T18:17:55.290Z,30.10
2018-02-20T18:20:23.582Z,26.82
2018-02-20T18:22:51.839Z,29.76
2018-02-20T18:25:20.126Z,27.18
2018-02-20T18:27:48.382Z,28.28
2018-02-20T18:30:16.682Z,26.84
2018-02-20T18:32:44.967Z,26.86
2018-02-20T18:35:13.218Z,28.68
2018-02-20T18:37:40.743Z,30.06
2018-02-20T18:40:08.994Z,27.38
2018-02-20T18:42:40.319Z,26.68
2018-02-20T18:45:08.581Z,26.44
2018-02-20T18:47:36.958Z,26.98
2018-02-20T18:50:05.782Z,25.96
2018-02-20T18:52:34.070Z,26.90
2018-02-20T18:55:02.323Z,30.20
2018-02-20T18:57:30.619Z,28.20
2018-02-20T18:59:58.878Z,28.50
2018-02-20T19:02:27.177Z,30.12
2018-02-20T19:04:55.443Z,29.22
2018-02-20T19:07:23.704Z,29.96
2018-02-20T19:09:51.994Z,30.94
2018-02-20T19:12:20.251Z,30.12
2018-02-20T19:14:48.539Z,28.22
2018-02-20T19:17:18.822Z,30.42
2018-02-20T19:19:47.078Z,28.62
2018-02-20T19:22:15.358Z,30.28
2018-02-20T19:24:43.662Z,30.52
2018-02-20T19:27:11.965Z,31.80
2018-02-20T19:29:40.235Z,31.82
2018-02-20T19:32:08.487Z,28.92
2018-02-20T19:34:36.796Z,34.70
2018-02-20T19:37:06.007Z,31.02
2018-02-20T19:39:34.991Z,29.58
2018-02-20T19:42:03.249Z,31.74
2018-02-20T19:44:31.527Z,32.82
2018-02-20T19:46:59.785Z,30.86
2018-02-20T19:49:28.055Z,29.92
2018-02-20T19:51:56.335Z,28.42
2018-02-20T19:54:24.630Z,34.40
2018-02-20T19:56:52.901Z,32.28
2018-02-20T19:59:21.166Z,31.16
2018-02-20T20:01:49.422Z,29.72
2018-02-20T20:04:17.699Z,32.36
2018-02-20T20:06:45.975Z,30.66
2018-02-20T20:09:14.268Z,33.98
2018-02-20T20:11:42.553Z,30.70
2018-02-20T20:14:10.805Z,33.14
2018-02-20T20:16:39.086Z,34.56
2018-02-20T20:19:07.351Z,33.98
2018-02-20T20:21:36.622Z,31.72
2018-02-20T20:24:04.114Z,34.36
2018-02-20T20:26:32.412Z,31.30
2018-02-20T20:29:00.673Z,35.58
2018-02-20T20:31:28.942Z,33.72
2018-02-20T20:33:57.206Z,34.30
2018-02-20T20:36:25.470Z,35.42
2018-02-20T20:38:53.748Z,32.72
2018-02-20T20:41:21.251Z,35.30
2018-02-20T20:43:49.517Z,33.80
2018-02-20T20:46:17.774Z,34.64
2018-02-20T20:48:46.082Z,35.32
2018-02-20T20:51:14.335Z,36.76
2018-02-20T20:53:42.620Z,33.34
2018-02-20T20:56:10.898Z,35.52
2018-02-20T20:58:39.147Z,34.92
2018-02-20T21:01:07.415Z,38.72
2018-02-20T21:03:36.692Z,40.02
2018-02-20T21:06:06.088Z,39.94
2018-02-20T21:08:35.117Z,37.70
2018-02-20T21:11:03.400Z,40.23
2018-02-20T21:13:31.686Z,39.73
2018-02-20T21:15:59.946Z,40.10
2018-02-20T21:18:28.222Z,37.58
2018-02-20T21:20:56.486Z,37.85
2018-02-20T21:23:24.757Z,39.70
2018-02-20T21:25:53.038Z,40.06
2018-02-20T21:28:21.293Z,41.92
2018-02-20T21:30:49.573Z,36.77
2018-02-20T21:33:17.835Z,40.22
2018-02-20T21:35:46.119Z,37.45
2018-02-20T21:38:14.386Z,37.07
2018-02-20T21:40:42.667Z,37.27
2018-02-20T21:43:10.940Z,36.53
2018-02-20T21:45:39.241Z,37.55
2018-02-20T21:48:07.499Z,39.67
2018-02-20T21:50:36.674Z,37.32
2018-02-20T21:53:04.834Z,40.24
2018-02-20T21:55:33.090Z,37.43
2018-02-20T21:58:01.391Z,38.08
2018-02-20T22:00:29.655Z,37.18
2018-02-20T22:02:57.912Z,36.46
2018-02-20T22:05:26.174Z,38.54
2018-02-20T22:07:54.423Z,36.04
2018-02-20T22:10:22.681Z,39.68
2018-02-20T22:12:50.942Z,39.08
2018-02-20T22:15:19.211Z,39.84
2018-02-20T22:17:47.482Z,36.55
2018-02-20T22:20:15.774Z,36.66
2018-02-20T22:22:43.277Z,41.12
2018-02-20T22:25:11.539Z,38.38
2018-02-20T22:27:39.802Z,38.84
2018-02-20T22:30:08.049Z,38.34
2018-02-20T22:32:37.013Z,40.38
2018-02-20T22:35:05.690Z,37.42
2018-02-20T22:37:33.954Z,38.98
2018-02-20T22:40:02.217Z,39.22
2018-02-20T22:42:30.506Z,39.80
2018-02-20T22:44:58.763Z,38.02
2018-02-20T22:47:27.027Z,38.70
2018-02-20T22:49:55.273Z,39.00
2018-02-20T22:52:23.559Z,39.94
2018-02-20T22:54:51.810Z,39.74
2018-02-20T22:57:20.097Z,42.60
2018-02-20T22:59:48.355Z,39.38
2018-02-20T23:02:16.632Z,40.72
2018-02-20T23:04:44.897Z,40.67
2018-02-20T23:07:13.186Z,41.90
2018-02-20T23:09:41.442Z,41.22
2018-02-20T23:12:09.722Z,43.58
2018-02-20T23:14:37.993Z,40.22
2018-02-20T23:17:07.170Z,40.45
2018-02-20T23:19:35.888Z,41.40
2018-02-20T23:22:04.776Z,39.85
2018-02-20T23:24:33.051Z,38.55
2018-02-20T23:27:01.314Z,41.98
2018-02-20T23:29:29.599Z,41.08
2018-02-20T23:31:57.875Z,42.13
2018-02-20T23:34:26.162Z,43.88
2018-02-20T23:36:54.422Z,40.45
2018-02-20T23:39:22.690Z,43.52
2018-02-20T23:41:50.954Z,40.88
2018-02-20T23:44:19.252Z,46.23
2018-02-20T23:46:47.514Z,43.52
2018-02-20T23:49:15.774Z,41.45
2018-02-20T23:51:43.291Z,40.80
2018-02-20T23:54:11.571Z,39.90
2018-02-20T23:56:39.058Z,44.03
2018-02-20T23:59:07.350Z,42.75
